< < Back
Terminal Aerodrome Forecast


Current Version              Previous Versions:   1  2  3  4  5  6  7  8  9  

Terminal Aerodrome Forecast

129
FTUS42 KGSP 262339
TAFAVL
TAF
KAVL 262339Z 2700/2724 35014G22KT P6SM SCT045 OVC080
     FM270400 33006KT P6SM SCT045
     FM270700 33006KT P6SM SCT250
     FM271500 34010KT P6SM FEW250=

Latest METAR

564
SAUS70 KWBC 271000 RRB
MTRAVL
METAR KAVL 270954Z AUTO 34003KT 10SM SCT041 08/06 A2982 RMK AO2 SLP086
T00780056


USA.gov is the U.S. government's official web portal to all federal, state and local government web resources and services.